createdAt,value
2023-05-08T00:00:15.673Z,0
2023-05-08T00:01:15.654Z,0
2023-05-08T00:02:15.709Z,0
2023-05-08T00:03:15.737Z,0
2023-05-08T00:04:15.888Z,0
2023-05-08T00:05:15.654Z,0
2023-05-08T00:06:15.647Z,0
2023-05-08T00:07:15.669Z,0
2023-05-08T00:08:15.664Z,0
2023-05-08T00:09:15.660Z,0
2023-05-08T00:10:15.808Z,0
2023-05-08T00:11:15.660Z,0
2023-05-08T00:12:15.672Z,0
2023-05-08T00:13:15.711Z,0
2023-05-08T00:14:15.663Z,0
2023-05-08T00:15:15.674Z,0
2023-05-08T00:16:15.682Z,0
2023-05-08T00:17:15.678Z,0
2023-05-08T00:18:15.651Z,0
2023-05-08T00:19:15.659Z,0
2023-05-08T00:20:15.773Z,0
2023-05-08T00:21:15.656Z,0
2023-05-08T00:22:15.683Z,0
2023-05-08T00:23:15.662Z,0
2023-05-08T00:24:15.664Z,0
2023-05-08T00:25:15.657Z,0
2023-05-08T00:26:15.657Z,0
2023-05-08T00:27:15.674Z,0
2023-05-08T00:28:15.650Z,0
2023-05-08T00:29:15.654Z,0
2023-05-08T00:30:15.668Z,0
2023-05-08T00:31:15.655Z,0
2023-05-08T00:32:15.782Z,0
2023-05-08T00:33:15.684Z,0
2023-05-08T00:34:15.653Z,0
2023-05-08T00:35:15.651Z,0
2023-05-08T00:36:15.701Z,0
2023-05-08T00:37:15.668Z,0
2023-05-08T00:38:15.651Z,0
2023-05-08T00:39:15.674Z,0
2023-05-08T00:40:15.929Z,0
2023-05-08T00:41:15.645Z,0
2023-05-08T00:42:15.669Z,0
2023-05-08T00:43:15.657Z,0
2023-05-08T00:44:15.669Z,0
2023-05-08T00:45:15.673Z,0
2023-05-08T00:46:15.704Z,0
2023-05-08T00:47:15.660Z,0
2023-05-08T00:48:15.647Z,0
2023-05-08T00:49:15.658Z,0
2023-05-08T00:50:15.873Z,0
2023-05-08T00:51:15.656Z,0
2023-05-08T00:52:15.673Z,0
2023-05-08T00:53:15.699Z,0
2023-05-08T00:54:15.654Z,0
2023-05-08T00:55:15.658Z,0
2023-05-08T00:56:15.706Z,0
2023-05-08T00:57:15.670Z,0
2023-05-08T00:58:15.654Z,0
2023-05-08T00:59:15.644Z,0
2023-05-08T01:00:15.661Z,0
2023-05-08T01:01:15.680Z,0
2023-05-08T01:02:15.726Z,0
2023-05-08T01:03:15.774Z,0
2023-05-08T01:04:15.658Z,0
2023-05-08T01:05:15.661Z,0
2023-05-08T01:06:15.653Z,0
2023-05-08T01:07:15.679Z,0
2023-05-08T01:08:15.657Z,0
2023-05-08T01:09:15.664Z,0
2023-05-08T01:10:15.853Z,0
2023-05-08T01:11:15.669Z,0
2023-05-08T01:12:15.680Z,0
2023-05-08T01:13:15.766Z,0
2023-05-08T01:14:15.670Z,0
2023-05-08T01:15:15.679Z,0
2023-05-08T01:16:15.717Z,0
2023-05-08T01:17:15.680Z,0
2023-05-08T01:18:15.685Z,0
2023-05-08T01:19:15.662Z,0
2023-05-08T01:20:15.799Z,0
2023-05-08T01:21:15.677Z,0
2023-05-08T01:22:15.701Z,0
2023-05-08T01:23:15.680Z,0
2023-05-08T01:24:15.660Z,0
2023-05-08T01:25:15.670Z,0
2023-05-08T01:26:15.666Z,0
2023-05-08T01:27:15.689Z,0
2023-05-08T01:28:15.656Z,0
2023-05-08T01:29:15.662Z,0
2023-05-08T01:30:15.666Z,0
2023-05-08T01:31:15.697Z,0
2023-05-08T01:32:15.701Z,0
2023-05-08T01:33:15.763Z,0
2023-05-08T01:34:15.683Z,0
2023-05-08T01:35:15.661Z,0
2023-05-08T01:36:15.668Z,0
2023-05-08T01:37:15.716Z,0
2023-05-08T01:38:15.656Z,0
2023-05-08T01:39:15.677Z,0
2023-05-08T01:40:15.840Z,0
2023-05-08T01:41:15.653Z,0
2023-05-08T01:42:15.694Z,0
2023-05-08T01:43:15.674Z,0
2023-05-08T01:44:15.687Z,0
2023-05-08T01:45:15.679Z,0
2023-05-08T01:46:15.709Z,0
2023-05-08T01:47:15.683Z,0
2023-05-08T01:48:15.657Z,0
2023-05-08T01:49:15.668Z,0
2023-05-08T01:50:15.888Z,0
2023-05-08T01:51:15.656Z,0
2023-05-08T01:52:15.687Z,0
2023-05-08T01:53:15.665Z,0
2023-05-08T01:54:15.663Z,0
2023-05-08T01:55:15.664Z,0
2023-05-08T01:56:15.658Z,0
2023-05-08T01:57:15.669Z,0
2023-05-08T01:58:15.646Z,0
2023-05-08T01:59:15.655Z,0
2023-05-08T02:00:15.670Z,0
2023-05-08T02:01:15.700Z,0
2023-05-08T02:02:15.705Z,0
2023-05-08T02:03:15.744Z,0
2023-05-08T02:04:15.727Z,0
2023-05-08T02:05:15.672Z,0
2023-05-08T02:06:15.672Z,0
2023-05-08T02:07:15.669Z,0
2023-05-08T02:08:15.687Z,0
2023-05-08T02:09:15.655Z,0
2023-05-08T02:10:15.742Z,0
2023-05-08T02:11:15.672Z,0
2023-05-08T02:12:15.685Z,0
2023-05-08T02:13:15.705Z,0
2023-05-08T02:14:15.651Z,0
2023-05-08T02:15:15.674Z,0
2023-05-08T02:16:15.688Z,0
2023-05-08T02:17:15.686Z,0
2023-05-08T02:18:15.661Z,0
2023-05-08T02:19:15.664Z,0
2023-05-08T02:20:15.697Z,0
2023-05-08T02:21:15.658Z,0
2023-05-08T02:22:15.677Z,0
2023-05-08T02:23:15.654Z,0
2023-05-08T02:24:15.666Z,0
2023-05-08T02:25:15.656Z,0
2023-05-08T02:26:15.672Z,0
2023-05-08T02:27:15.677Z,0
2023-05-08T02:28:15.655Z,0
2023-05-08T02:29:15.673Z,0
2023-05-08T02:30:15.771Z,0
2023-05-08T02:31:15.664Z,0
2023-05-08T02:32:15.700Z,0
2023-05-08T02:33:15.669Z,0
2023-05-08T02:34:15.667Z,0
2023-05-08T02:35:15.664Z,0
2023-05-08T02:36:15.666Z,0
2023-05-08T02:37:15.685Z,0
2023-05-08T02:38:15.662Z,0
2023-05-08T02:39:15.668Z,0
2023-05-08T02:40:15.774Z,0
2023-05-08T02:41:15.669Z,0
2023-05-08T02:42:15.688Z,0
2023-05-08T02:43:15.664Z,0
2023-05-08T02:44:15.663Z,0
2023-05-08T02:45:15.675Z,0
2023-05-08T02:46:15.791Z,0
2023-05-08T02:47:15.674Z,0
2023-05-08T02:48:15.665Z,0
2023-05-08T02:49:15.657Z,0
2023-05-08T02:50:15.659Z,0
2023-05-08T02:51:15.666Z,0
2023-05-08T02:52:15.672Z,0
2023-05-08T02:53:15.659Z,0
2023-05-08T02:54:15.664Z,0
2023-05-08T02:55:15.661Z,0
2023-05-08T02:56:15.667Z,0
2023-05-08T02:57:15.730Z,0
2023-05-08T02:58:15.661Z,0
2023-05-08T02:59:15.671Z,0
2023-05-08T03:00:15.672Z,0
2023-05-08T03:01:15.703Z,0
2023-05-08T03:02:15.721Z,0
2023-05-08T03:03:15.788Z,0
2023-05-08T03:04:15.663Z,0
2023-05-08T03:05:15.657Z,0
2023-05-08T03:06:15.653Z,0
2023-05-08T03:07:15.673Z,0
2023-05-08T03:08:15.648Z,0
2023-05-08T03:09:15.649Z,0
2023-05-08T03:10:15.851Z,0.01
2023-05-08T03:11:15.659Z,0.01
2023-05-08T03:12:15.684Z,0.01
2023-05-08T03:13:15.711Z,0.01
2023-05-08T03:14:15.667Z,0.01
2023-05-08T03:15:15.673Z,0.01
2023-05-08T03:16:15.719Z,0.02
2023-05-08T03:17:15.676Z,0.02
2023-05-08T03:18:15.647Z,0.02
2023-05-08T03:19:15.660Z,0.02
2023-05-08T03:20:15.810Z,0.02
2023-05-08T03:21:15.658Z,0.03
2023-05-08T03:22:15.660Z,0.03
2023-05-08T03:23:15.657Z,0.03
2023-05-08T03:24:15.652Z,0.04
2023-05-08T03:25:15.662Z,0.04
2023-05-08T03:26:15.659Z,0.04
2023-05-08T03:27:15.673Z,0.05
2023-05-08T03:28:15.647Z,0.05
2023-05-08T03:29:15.655Z,0.05
2023-05-08T03:30:15.712Z,0.06
2023-05-08T03:31:15.667Z,0.06
2023-05-08T03:32:15.661Z,0.07
2023-05-08T03:33:15.664Z,0.07
2023-05-08T03:34:15.650Z,0.08
2023-05-08T03:35:15.650Z,0.08
2023-05-08T03:36:15.657Z,0.09
2023-05-08T03:37:15.672Z,0.09
2023-05-08T03:38:15.654Z,0.1
2023-05-08T03:39:15.664Z,0.11
2023-05-08T03:40:15.639Z,0.11
2023-05-08T03:41:15.654Z,0.12
2023-05-08T03:42:15.686Z,0.12
2023-05-08T03:43:15.672Z,0.13
2023-05-08T03:44:15.656Z,0.14
2023-05-08T03:45:15.671Z,0.14
2023-05-08T03:46:15.670Z,0.15
2023-05-08T03:47:15.661Z,0.15
2023-05-08T03:48:15.738Z,0.16
2023-05-08T03:49:15.652Z,0.17
2023-05-08T03:50:15.643Z,0.17
2023-05-08T03:51:15.651Z,0.18
2023-05-08T03:52:15.661Z,0.19
2023-05-08T03:53:15.669Z,0.19
2023-05-08T03:54:15.656Z,0.2
2023-05-08T03:55:15.659Z,0.21
2023-05-08T03:56:15.661Z,0.21
2023-05-08T03:57:15.696Z,0.22
2023-05-08T03:58:15.664Z,0.23
2023-05-08T03:59:15.662Z,0.23
2023-05-08T04:00:15.681Z,0.24
2023-05-08T04:01:15.671Z,0.25
2023-05-08T04:02:15.775Z,0.25
2023-05-08T04:03:15.775Z,0.26
2023-05-08T04:04:15.816Z,0.26
2023-05-08T04:05:15.683Z,0.27
2023-05-08T04:06:15.667Z,0.27
2023-05-08T04:07:15.678Z,0.28
2023-05-08T04:08:15.710Z,0.29
2023-05-08T04:09:15.664Z,0.29
2023-05-08T04:10:15.899Z,0.3
2023-05-08T04:11:15.662Z,0.31
2023-05-08T04:12:15.681Z,0.32
2023-05-08T04:13:15.699Z,0.32
2023-05-08T04:14:15.664Z,0.33
2023-05-08T04:15:15.885Z,0.34
2023-05-08T04:16:15.722Z,0.34
2023-05-08T04:17:15.688Z,0.35
2023-05-08T04:18:15.664Z,0.36
2023-05-08T04:19:15.670Z,0.36
2023-05-08T04:20:15.662Z,0.37
2023-05-08T04:21:15.669Z,0.38
2023-05-08T04:22:15.689Z,0.39
2023-05-08T04:23:15.657Z,0.39
2023-05-08T04:24:15.678Z,0.4
2023-05-08T04:25:15.828Z,0.41
2023-05-08T04:26:16.573Z,0.42
2023-05-08T04:27:15.689Z,0.42
2023-05-08T04:28:15.669Z,0.43
2023-05-08T04:29:15.672Z,0.43
2023-05-08T04:30:15.681Z,0.44
2023-05-08T04:31:15.774Z,0.45
2023-05-08T04:32:15.740Z,0.45
2023-05-08T04:33:15.719Z,0.46
2023-05-08T04:34:15.661Z,0.47
2023-05-08T04:35:15.821Z,0.47
2023-05-08T04:36:15.664Z,0.48
2023-05-08T04:37:15.685Z,0.49
2023-05-08T04:38:15.675Z,0.49
2023-05-08T04:39:15.666Z,0.5
2023-05-08T04:40:15.676Z,0.5
2023-05-08T04:41:15.700Z,0.51
2023-05-08T04:42:15.676Z,0.51
2023-05-08T04:43:15.683Z,0.51
2023-05-08T04:44:15.678Z,0.51
2023-05-08T04:45:15.725Z,0.52
2023-05-08T04:46:15.707Z,0.52
2023-05-08T04:47:15.674Z,0.53
2023-05-08T04:48:15.671Z,0.53
2023-05-08T04:49:15.682Z,0.53
2023-05-08T04:50:15.659Z,0.53
2023-05-08T04:51:15.672Z,0.54
2023-05-08T04:52:15.690Z,0.55
2023-05-08T04:53:15.673Z,0.56
2023-05-08T04:54:15.670Z,0.57
2023-05-08T04:55:15.661Z,0.57
2023-05-08T04:56:15.668Z,0.57
2023-05-08T04:57:15.680Z,0.57
2023-05-08T04:58:15.669Z,0.58
2023-05-08T04:59:16.281Z,0.58
2023-05-08T05:00:15.700Z,0.58
2023-05-08T05:01:15.743Z,0.59
2023-05-08T05:02:15.682Z,0.59
2023-05-08T05:03:15.828Z,0.6
2023-05-08T05:04:15.749Z,0.6
2023-05-08T05:05:15.755Z,0.6
2023-05-08T05:06:15.665Z,0.61
2023-05-08T05:07:15.692Z,0.62
2023-05-08T05:08:15.659Z,0.62
2023-05-08T05:09:15.668Z,0.62
2023-05-08T05:10:15.652Z,0.63
2023-05-08T05:11:15.681Z,0.63
2023-05-08T05:12:15.678Z,0.64
2023-05-08T05:13:15.711Z,0.64
2023-05-08T05:14:15.668Z,0.65
2023-05-08T05:15:15.758Z,0.65
2023-05-08T05:16:15.723Z,0.65
2023-05-08T05:17:15.686Z,0.66
2023-05-08T05:18:15.677Z,0.66
2023-05-08T05:19:15.658Z,0.66
2023-05-08T05:20:15.653Z,0.68
2023-05-08T05:21:15.667Z,0.68
2023-05-08T05:22:15.690Z,0.69
2023-05-08T05:23:15.671Z,0.69
2023-05-08T05:24:15.678Z,0.69
2023-05-08T05:25:15.941Z,0.7
2023-05-08T05:26:15.662Z,0.71
2023-05-08T05:27:15.703Z,0.7
2023-05-08T05:28:15.661Z,0.71
2023-05-08T05:29:15.654Z,0.71
2023-05-08T05:30:15.708Z,0.71
2023-05-08T05:31:15.726Z,0.72
2023-05-08T05:32:15.673Z,0.72
2023-05-08T05:33:15.663Z,0.73
2023-05-08T05:34:15.659Z,0.73
2023-05-08T05:35:15.664Z,0.73
2023-05-08T05:36:15.703Z,0.74
2023-05-08T05:37:15.675Z,0.74
2023-05-08T05:38:15.656Z,0.75
2023-05-08T05:39:15.660Z,0.76
2023-05-08T05:40:15.661Z,0.76
2023-05-08T05:41:15.661Z,0.77
2023-05-08T05:42:15.654Z,0.77
2023-05-08T05:43:15.682Z,0.78
2023-05-08T05:44:15.668Z,0.78
2023-05-08T05:45:15.759Z,0.79
2023-05-08T05:46:15.684Z,0.79
2023-05-08T05:47:15.799Z,0.8
2023-05-08T05:48:15.673Z,0.8
2023-05-08T05:49:15.675Z,0.8
2023-05-08T05:50:15.654Z,0.8
2023-05-08T05:51:15.664Z,0.81
2023-05-08T05:52:15.669Z,0.81
2023-05-08T05:53:15.670Z,0.82
2023-05-08T05:54:15.666Z,0.82
2023-05-08T05:55:16.009Z,0.81
2023-05-08T05:56:15.658Z,0.81
2023-05-08T05:57:15.678Z,0.82
2023-05-08T05:58:15.676Z,0.82
2023-05-08T05:59:15.677Z,0.82
2023-05-08T06:00:15.676Z,0.82
2023-05-08T06:01:15.673Z,0.83
2023-05-08T06:02:15.667Z,0.83
2023-05-08T06:03:15.756Z,0.84
2023-05-08T06:04:15.709Z,0.84
2023-05-08T06:05:15.683Z,0.85
2023-05-08T06:06:15.654Z,0.85
2023-05-08T06:07:15.655Z,0.86
2023-05-08T06:08:15.673Z,0.87
2023-05-08T06:09:15.652Z,0.87
2023-05-08T06:10:15.652Z,0.88
2023-05-08T06:11:15.664Z,0.88
2023-05-08T06:12:15.662Z,0.89
2023-05-08T06:13:15.701Z,0.89
2023-05-08T06:14:15.665Z,0.9
2023-05-08T06:15:15.669Z,0.9
2023-05-08T06:16:15.708Z,0.9
2023-05-08T06:17:15.706Z,0.91
2023-05-08T06:18:15.669Z,0.91
2023-05-08T06:19:15.679Z,0.91
2023-05-08T06:20:15.674Z,0.92
2023-05-08T06:21:15.676Z,0.91
2023-05-08T06:22:15.659Z,0.92
2023-05-08T06:23:15.673Z,0.92
2023-05-08T06:24:15.722Z,0.92
2023-05-08T06:25:15.700Z,0.92
2023-05-08T06:26:15.667Z,0.93
2023-05-08T06:27:15.654Z,0.93
2023-05-08T06:28:15.657Z,0.94
2023-05-08T06:29:15.671Z,0.95
2023-05-08T06:30:15.669Z,0.95
2023-05-08T06:31:15.712Z,0.96
2023-05-08T06:32:15.655Z,0.97
2023-05-08T06:33:15.677Z,0.97
2023-05-08T06:34:15.667Z,0.98
2023-05-08T06:35:15.667Z,0.98
2023-05-08T06:36:15.658Z,0.99
2023-05-08T06:37:15.669Z,1
2023-05-08T06:38:15.674Z,1
2023-05-08T06:39:15.660Z,1.01
2023-05-08T06:40:15.649Z,1.02
2023-05-08T06:41:15.660Z,1.02
2023-05-08T06:42:15.664Z,1.03
2023-05-08T06:43:15.681Z,1.04
2023-05-08T06:44:15.691Z,1.05
2023-05-08T06:45:16.000Z,1.06
2023-05-08T06:46:15.680Z,1.08
2023-05-08T06:47:15.655Z,1.09
2023-05-08T06:48:15.683Z,1.09
2023-05-08T06:49:15.659Z,1.13
2023-05-08T06:50:15.649Z,1.66
2023-05-08T06:51:15.660Z,3.18
2023-05-08T06:52:15.679Z,4.51
2023-05-08T06:53:15.674Z,4.43
2023-05-08T06:54:15.660Z,4.42
2023-05-08T06:55:15.660Z,4.72
2023-05-08T06:56:15.661Z,4.88
2023-05-08T06:57:15.662Z,4.97
2023-05-08T06:58:15.658Z,4.79
2023-05-08T06:59:15.661Z,4.58
2023-05-08T07:00:15.676Z,5.38
2023-05-08T07:01:15.680Z,5
2023-05-08T07:02:15.664Z,4.7
2023-05-08T07:03:15.735Z,5.02
2023-05-08T07:04:15.690Z,4.65
2023-05-08T07:05:16.163Z,4.83
2023-05-08T07:06:15.677Z,4.91
2023-05-08T07:07:15.677Z,4.76
2023-05-08T07:08:15.659Z,5.31
2023-05-08T07:09:15.659Z,5.39
2023-05-08T07:10:15.653Z,4.61
2023-05-08T07:11:15.673Z,4.4
2023-05-08T07:12:15.664Z,5.07
2023-05-08T07:13:15.688Z,5.17
2023-05-08T07:14:15.675Z,5.72
2023-05-08T07:15:25.257Z,5.95
2023-05-08T07:16:15.761Z,5.34
2023-05-08T07:17:15.670Z,5.47
2023-05-08T07:18:15.667Z,5.93
2023-05-08T07:19:15.666Z,5.93
2023-05-08T07:20:15.658Z,6.09
2023-05-08T07:21:15.668Z,7.07
2023-05-08T07:22:15.720Z,6.87
2023-05-08T07:23:15.673Z,6.3
2023-05-08T07:24:15.664Z,7.5
2023-05-08T07:25:15.735Z,7.07
2023-05-08T07:26:15.669Z,5.28
2023-05-08T07:27:15.659Z,5.25
2023-05-08T07:28:15.672Z,5.51
2023-05-08T07:29:15.673Z,6.15
2023-05-08T07:30:15.703Z,7.05
2023-05-08T07:31:15.697Z,6.29
2023-05-08T07:32:15.663Z,6.12
2023-05-08T07:33:15.662Z,7.07
2023-05-08T07:34:15.662Z,7.93
2023-05-08T07:35:16.026Z,6.88
2023-05-08T07:36:15.657Z,5.22
2023-05-08T07:37:15.671Z,6.21
2023-05-08T07:38:15.651Z,6.73
2023-05-08T07:39:15.672Z,5.35
2023-05-08T07:40:15.649Z,5.1
2023-05-08T07:41:15.693Z,5.75
2023-05-08T07:42:15.653Z,6.7
2023-05-08T07:43:15.664Z,7.06
2023-05-08T07:44:15.673Z,6.98
2023-05-08T07:45:15.960Z,7.21
2023-05-08T07:46:15.719Z,6.83
2023-05-08T07:47:15.722Z,6.97
2023-05-08T07:48:15.699Z,7.63
2023-05-08T07:49:15.676Z,7.45
2023-05-08T07:50:15.662Z,6.16
2023-05-08T07:51:15.653Z,5.54
2023-05-08T07:52:15.685Z,6.28
2023-05-08T07:53:15.672Z,6.84
2023-05-08T07:54:15.664Z,6.58
2023-05-08T07:55:15.660Z,6.98
2023-05-08T07:56:15.648Z,7.03
2023-05-08T07:57:15.665Z,6.69
2023-05-08T07:58:15.668Z,8.17
2023-05-08T07:59:15.678Z,9.02
2023-05-08T08:00:15.686Z,7.92
2023-05-08T08:01:15.660Z,7.44
2023-05-08T08:02:16.007Z,7.04
2023-05-08T08:03:15.747Z,6.18
2023-05-08T08:04:15.725Z,6.14
2023-05-08T08:05:15.968Z,8.29
2023-05-08T08:06:15.663Z,10.49
2023-05-08T08:07:15.653Z,8.9
2023-05-08T08:08:15.661Z,6.45
2023-05-08T08:09:15.658Z,5.5
2023-05-08T08:10:15.643Z,6.71
2023-05-08T08:11:15.660Z,8.67
2023-05-08T08:12:15.666Z,9.37
2023-05-08T08:13:15.682Z,8.28
2023-05-08T08:14:15.671Z,6.38
2023-05-08T08:15:15.857Z,5.43
2023-05-08T08:16:15.660Z,5.41
2023-05-08T08:17:15.720Z,6.55
2023-05-08T08:18:15.690Z,8.12
2023-05-08T08:19:15.662Z,8.12
2023-05-08T08:20:15.644Z,7.8
2023-05-08T08:21:15.670Z,8.27
2023-05-08T08:22:15.674Z,8.11
2023-05-08T08:23:15.660Z,7.7
2023-05-08T08:24:15.662Z,8.1
2023-05-08T08:25:15.741Z,8.45
2023-05-08T08:26:15.703Z,8.82
2023-05-08T08:27:15.668Z,9.22
2023-05-08T08:28:15.723Z,8.87
2023-05-08T08:29:15.682Z,8.88
2023-05-08T08:30:18.637Z,9.23
2023-05-08T08:31:15.720Z,7.99
2023-05-08T08:32:15.684Z,6.13
2023-05-08T08:33:17.583Z,6.33
2023-05-08T08:34:15.668Z,8.46
2023-05-08T08:35:16.390Z,10.62
2023-05-08T08:36:15.674Z,11.21
2023-05-08T08:37:15.675Z,9.04
2023-05-08T08:38:15.658Z,6.3
2023-05-08T08:39:15.672Z,6.16
2023-05-08T08:40:15.676Z,8.99
2023-05-08T08:41:15.669Z,11.25
2023-05-08T08:42:15.705Z,10.44
2023-05-08T08:43:15.648Z,9.65
2023-05-08T08:44:15.667Z,10.25
2023-05-08T08:45:15.955Z,9.79
2023-05-08T08:46:15.783Z,8.67
2023-05-08T08:47:15.669Z,9.04
2023-05-08T08:48:15.665Z,10.21
2023-05-08T08:49:15.694Z,9.89
2023-05-08T08:50:15.682Z,8.73
2023-05-08T08:51:15.661Z,8.89
2023-05-08T08:52:15.660Z,10.44
2023-05-08T08:53:15.674Z,11.58
2023-05-08T08:54:15.690Z,11.17
2023-05-08T08:55:15.854Z,9.24
2023-05-08T08:56:15.663Z,7.69
2023-05-08T08:57:15.668Z,7.26
2023-05-08T08:58:15.681Z,8
2023-05-08T08:59:15.670Z,9.6
2023-05-08T09:00:15.681Z,10.54
2023-05-08T09:01:15.668Z,9.95
2023-05-08T09:02:15.726Z,9.29
2023-05-08T09:03:15.797Z,9.96
2023-05-08T09:04:15.728Z,10.96
2023-05-08T09:05:15.829Z,10.54
2023-05-08T09:06:15.681Z,9.4
2023-05-08T09:07:15.655Z,9.73
2023-05-08T09:08:15.668Z,11.1
2023-05-08T09:09:15.664Z,11.13
2023-05-08T09:10:15.682Z,9.37
2023-05-08T09:11:15.662Z,8.88
2023-05-08T09:12:15.676Z,10.45
2023-05-08T09:13:17.361Z,11.32
2023-05-08T09:14:15.670Z,10.84
2023-05-08T09:15:15.928Z,10.76
2023-05-08T09:16:15.743Z,10.92
2023-05-08T09:17:15.674Z,10.05
2023-05-08T09:18:15.674Z,9.06
2023-05-08T09:19:15.660Z,9.06
2023-05-08T09:20:15.902Z,11.43
2023-05-08T09:21:15.665Z,12.17
2023-05-08T09:22:15.676Z,11.46
2023-05-08T09:23:15.672Z,11.68
2023-05-08T09:24:15.677Z,12.77
2023-05-08T09:25:15.903Z,12.25
2023-05-08T09:26:15.680Z,10.63
2023-05-08T09:27:15.673Z,9.18
2023-05-08T09:28:15.658Z,8.05
2023-05-08T09:29:15.663Z,8.76
2023-05-08T09:30:15.661Z,9.82
2023-05-08T09:31:15.680Z,10.23
2023-05-08T09:32:15.739Z,10.58
2023-05-08T09:33:15.772Z,11.13
2023-05-08T09:34:15.661Z,11.02
2023-05-08T09:35:16.053Z,10.64
2023-05-08T09:36:15.682Z,10.92
2023-05-08T09:37:15.672Z,11.3
2023-05-08T09:38:15.667Z,10.73
2023-05-08T09:39:15.656Z,10.71
2023-05-08T09:40:15.647Z,11.24
2023-05-08T09:41:15.981Z,11.34
2023-05-08T09:42:15.660Z,11.24
2023-05-08T09:43:15.660Z,11.37
2023-05-08T09:44:15.669Z,11.04
2023-05-08T09:45:15.837Z,10.54
2023-05-08T09:46:15.727Z,10.25
2023-05-08T09:47:15.678Z,10.34
2023-05-08T09:48:15.653Z,10.72
2023-05-08T09:49:15.655Z,10.81
2023-05-08T09:50:15.781Z,10.05
2023-05-08T09:51:15.662Z,9.46
2023-05-08T09:52:15.732Z,8.34
2023-05-08T09:53:15.652Z,6.83
2023-05-08T09:54:15.686Z,7.48
2023-05-08T09:55:15.683Z,10.41
2023-05-08T09:56:15.664Z,13.31
2023-05-08T09:57:15.662Z,14.2
2023-05-08T09:58:15.666Z,13.2
2023-05-08T09:59:15.675Z,11.98
2023-05-08T10:00:16.020Z,11.92
2023-05-08T10:01:15.704Z,12.44
2023-05-08T10:02:15.663Z,11.57
2023-05-08T10:03:15.721Z,10.08
2023-05-08T10:04:15.728Z,10.45
2023-05-08T10:05:15.714Z,11.72
2023-05-08T10:06:15.658Z,11.61
2023-05-08T10:07:15.665Z,10.04
2023-05-08T10:08:15.667Z,7.9
2023-05-08T10:09:15.689Z,7.46
2023-05-08T10:10:15.644Z,8.19
2023-05-08T10:11:15.666Z,8.39
2023-05-08T10:12:15.666Z,8.49
2023-05-08T10:13:15.685Z,9.66
2023-05-08T10:14:15.677Z,11.11
2023-05-08T10:15:15.674Z,12.11
2023-05-08T10:16:15.672Z,12.1
2023-05-08T10:17:15.735Z,11.85
2023-05-08T10:18:15.673Z,11.45
2023-05-08T10:19:15.667Z,11.45
2023-05-08T10:20:15.802Z,9.2
2023-05-08T10:21:22.222Z,7.56
2023-05-08T10:22:21.250Z,7.48
2023-05-08T10:23:21.241Z,8.98
2023-05-08T10:24:21.243Z,10.51
2023-05-08T10:25:21.249Z,11.15
2023-05-08T10:26:21.219Z,10.67
2023-05-08T10:27:21.238Z,8.63
2023-05-08T10:28:21.238Z,7.16
2023-05-08T10:29:21.240Z,6.68
2023-05-08T10:30:21.242Z,6.49
2023-05-08T10:31:21.258Z,6.5
2023-05-08T10:32:21.292Z,7.73
2023-05-08T10:33:21.230Z,9.99
2023-05-08T10:34:21.230Z,11.74
2023-05-08T10:35:21.223Z,12.53
2023-05-08T10:36:21.260Z,11.97
2023-05-08T10:37:21.230Z,11.88
2023-05-08T10:38:21.270Z,12.52
2023-05-08T10:39:21.218Z,12.43
2023-05-08T10:40:21.235Z,10.82
2023-05-08T10:41:21.239Z,8.64
2023-05-08T10:42:21.242Z,9.01
2023-05-08T10:43:21.228Z,11.63
2023-05-08T10:44:21.232Z,13.06
2023-05-08T10:45:21.238Z,12.53
2023-05-08T10:46:21.239Z,10.02
2023-05-08T10:47:21.239Z,8.71
2023-05-08T10:48:21.246Z,9.92
2023-05-08T10:49:21.251Z,11.25
2023-05-08T10:50:21.234Z,12.11
2023-05-08T10:51:21.241Z,12.24
2023-05-08T10:52:21.274Z,11.85
2023-05-08T10:53:21.231Z,11.28
2023-05-08T10:54:21.226Z,11.47
2023-05-08T10:55:21.240Z,11.92
2023-05-08T10:56:21.245Z,11.46
2023-05-08T10:57:21.216Z,10.51
2023-05-08T10:58:21.226Z,10.91
2023-05-08T10:59:21.259Z,12.78
2023-05-08T11:00:21.269Z,13.63
2023-05-08T11:01:21.252Z,13.13
2023-05-08T11:02:21.234Z,12.34
2023-05-08T11:03:30.725Z,12.63
2023-05-08T11:04:21.307Z,12.48
2023-05-08T11:05:21.239Z,11.4
2023-05-08T11:06:21.235Z,10.2
2023-05-08T11:07:21.211Z,9.78
2023-05-08T11:08:21.235Z,9.67
2023-05-08T11:09:21.260Z,10.2
2023-05-08T11:10:21.223Z,11.31
2023-05-08T11:11:21.229Z,11.39
2023-05-08T11:12:21.225Z,10.33
2023-05-08T11:13:21.242Z,10.56
2023-05-08T11:14:21.225Z,11.6
2023-05-08T11:15:21.243Z,11.48
2023-05-08T11:16:21.251Z,10.63
2023-05-08T11:17:21.286Z,10.52
2023-05-08T11:18:21.213Z,11.6
2023-05-08T11:19:21.231Z,11.6
2023-05-08T11:20:21.205Z,12.95
2023-05-08T11:21:21.222Z,12.09
2023-05-08T11:22:21.216Z,11.42
2023-05-08T11:23:21.234Z,11.2
2023-05-08T11:24:21.223Z,11.16
2023-05-08T11:25:21.221Z,12.03
2023-05-08T11:26:21.210Z,12.66
2023-05-08T11:27:21.221Z,12.53
2023-05-08T11:28:21.234Z,11.3
2023-05-08T11:29:21.243Z,8.88
2023-05-08T11:30:21.258Z,7.47
2023-05-08T11:31:21.260Z,8.59
2023-05-08T11:32:21.224Z,10.45
2023-05-08T11:33:21.244Z,11.29
2023-05-08T11:34:21.213Z,11.15
2023-05-08T11:35:21.220Z,10.79
2023-05-08T11:36:21.206Z,10.83
2023-05-08T11:37:21.218Z,11.09
2023-05-08T11:38:21.229Z,11.4
2023-05-08T11:39:21.217Z,11.7
2023-05-08T11:40:21.223Z,11.66
2023-05-08T11:41:21.220Z,11.6
2023-05-08T11:42:21.217Z,12.02
2023-05-08T11:43:21.226Z,12.89
2023-05-08T11:44:21.224Z,12.96
2023-05-08T11:45:21.232Z,12.46
2023-05-08T11:46:21.322Z,12.79
2023-05-08T11:47:21.308Z,13.46
2023-05-08T11:48:21.217Z,13.28
2023-05-08T11:49:24.606Z,12.17
2023-05-08T11:50:21.207Z,10.87
2023-05-08T11:51:21.227Z,8.76
2023-05-08T11:52:21.235Z,7.17
2023-05-08T11:53:21.227Z,7.72
2023-05-08T11:54:21.219Z,9.64
2023-05-08T11:55:21.210Z,10.55
2023-05-08T11:56:21.252Z,10.77
2023-05-08T11:57:21.231Z,10.82
2023-05-08T11:58:21.220Z,11.45
2023-05-08T11:59:21.246Z,11.81
2023-05-08T12:00:21.323Z,10.91
2023-05-08T12:01:21.225Z,7.83
2023-05-08T12:02:21.241Z,6.22
2023-05-08T12:03:21.341Z,6.24
2023-05-08T12:04:21.557Z,7.8
2023-05-08T12:05:21.218Z,8.88
2023-05-08T12:06:21.226Z,9.81
2023-05-08T12:07:21.224Z,8.77
2023-05-08T12:08:21.223Z,8.49
2023-05-08T12:09:21.229Z,8.44
2023-05-08T12:10:21.211Z,8.42
2023-05-08T12:11:21.219Z,8.99
2023-05-08T12:12:21.245Z,9.15
2023-05-08T12:13:21.324Z,10.18
2023-05-08T12:14:21.223Z,11.09
2023-05-08T12:15:21.223Z,10.47
2023-05-08T12:16:21.266Z,8.44
2023-05-08T12:17:21.295Z,6.99
2023-05-08T12:18:21.227Z,7.46
2023-05-08T12:19:21.241Z,7.46
2023-05-08T12:20:21.233Z,10.71
2023-05-08T12:21:21.217Z,10.78
2023-05-08T12:22:21.227Z,10.57
2023-05-08T12:23:21.222Z,10.61
2023-05-08T12:24:21.220Z,10.29
2023-05-08T12:25:21.231Z,9.04
2023-05-08T12:26:21.224Z,7.67
2023-05-08T12:27:21.216Z,7.27
2023-05-08T12:28:21.221Z,8.64
2023-05-08T12:29:21.251Z,9.53
2023-05-08T12:30:21.232Z,8.91
2023-05-08T12:31:21.280Z,7.9
2023-05-08T12:32:21.220Z,7.99
2023-05-08T12:33:21.261Z,10.06
2023-05-08T12:34:21.231Z,11.43
2023-05-08T12:35:21.230Z,10.48
2023-05-08T12:36:21.221Z,7.84
2023-05-08T12:37:21.222Z,6.67
2023-05-08T12:38:21.238Z,8.12
2023-05-08T12:39:21.400Z,10.17
2023-05-08T12:40:21.210Z,10.84
2023-05-08T12:41:21.240Z,10
2023-05-08T12:42:21.256Z,9.08
2023-05-08T12:43:21.232Z,8.13
2023-05-08T12:44:21.252Z,7.1
2023-05-08T12:45:21.231Z,8.74
2023-05-08T12:46:21.270Z,11.08
2023-05-08T12:47:21.263Z,10.6
2023-05-08T12:48:21.233Z,8.43
2023-05-08T12:49:21.225Z,8.57
2023-05-08T12:50:21.230Z,10.26
2023-05-08T12:51:21.224Z,10.39
2023-05-08T12:52:21.220Z,9.18
2023-05-08T12:53:21.216Z,8.85
2023-05-08T12:54:21.217Z,9.27
2023-05-08T12:55:21.212Z,9.01
2023-05-08T12:56:21.219Z,7.82
2023-05-08T12:57:21.230Z,6.61
2023-05-08T12:58:21.228Z,6.75
2023-05-08T12:59:21.233Z,7.82
2023-05-08T13:00:21.288Z,9.36
2023-05-08T13:01:21.254Z,9.51
2023-05-08T13:02:21.354Z,9.12
2023-05-08T13:03:21.336Z,8.22
2023-05-08T13:04:21.277Z,7.37
2023-05-08T13:05:21.222Z,7.86
2023-05-08T13:06:21.296Z,8.74
2023-05-08T13:07:21.242Z,8.58
2023-05-08T13:08:21.227Z,7.91
2023-05-08T13:09:21.215Z,8.84
2023-05-08T13:10:23.981Z,11.01
2023-05-08T13:11:21.236Z,8.43
2023-05-08T13:12:21.218Z,7.82
2023-05-08T13:13:21.361Z,8.44
2023-05-08T13:14:21.235Z,7.6
2023-05-08T13:15:21.245Z,6.76
2023-05-08T13:16:21.289Z,7.78
2023-05-08T13:17:21.258Z,9.31
2023-05-08T13:18:21.218Z,8.58
2023-05-08T13:19:21.225Z,8.58
2023-05-08T13:20:21.239Z,8.13
2023-05-08T13:21:21.230Z,8.43
2023-05-08T13:22:21.211Z,8.32
2023-05-08T13:23:21.223Z,7.64
2023-05-08T13:24:21.258Z,6.99
2023-05-08T13:25:21.231Z,7.54
2023-05-08T13:26:21.218Z,8.1
2023-05-08T13:27:21.231Z,7.61
2023-05-08T13:28:21.220Z,6.64
2023-05-08T13:29:21.227Z,6.07
2023-05-08T13:30:21.227Z,7.44
2023-05-08T13:31:21.242Z,7.95
2023-05-08T13:32:21.297Z,7.78
2023-05-08T13:33:21.233Z,7.33
2023-05-08T13:34:21.234Z,7.97